createdAt,value
2023-04-25T00:01:49.292Z,10.77
2023-04-25T00:04:17.190Z,10.95
2023-04-25T00:06:45.025Z,12.13
2023-04-25T00:09:12.524Z,13.20
2023-04-25T00:11:41.449Z,12.70
2023-04-25T00:14:09.050Z,12.57
2023-04-25T00:16:37.127Z,12.27
2023-04-25T00:19:11.628Z,11.68
2023-04-25T00:21:41.630Z,12.68
2023-04-25T00:24:09.515Z,13.93
2023-04-25T00:26:37.189Z,16.50
2023-04-25T00:29:04.621Z,17.08
2023-04-25T00:31:32.143Z,18.08
2023-04-25T00:33:59.512Z,21.13
2023-04-25T00:36:27.092Z,20.80
2023-04-25T00:38:56.011Z,16.98
2023-04-25T00:41:24.898Z,19.75
2023-04-25T00:43:54.867Z,17.35
2023-04-25T00:46:22.571Z,18.40
2023-04-25T00:48:49.879Z,18.45
2023-04-25T00:51:24.505Z,16.95
2023-04-25T00:53:52.679Z,16.98
2023-04-25T00:56:22.421Z,20.83
2023-04-25T00:58:51.526Z,20.35
2023-04-25T01:01:19.291Z,19.23
2023-04-25T01:03:47.973Z,21.33
2023-04-25T01:06:15.720Z,19.48
2023-04-25T01:08:43.016Z,19.92
2023-04-25T01:11:10.565Z,21.27
2023-04-25T01:13:37.864Z,19.98
2023-04-25T01:16:05.993Z,17.55
2023-04-25T01:18:33.370Z,19.27
2023-04-25T01:21:11.119Z,21.05
2023-04-25T01:23:41.913Z,16.88
2023-04-25T01:26:13.530Z,16.20
2023-04-25T01:28:42.511Z,14.10
2023-04-25T01:31:11.546Z,14.13
2023-04-25T01:33:38.968Z,12.25
2023-04-25T01:36:07.222Z,11.18
2023-04-25T01:38:34.944Z,12.10
2023-04-25T01:41:02.800Z,9.13
2023-04-25T01:43:30.329Z,11.10
2023-04-25T01:45:58.592Z,8.50
2023-04-25T01:48:26.070Z,7.97
2023-04-25T01:50:53.659Z,9.95
2023-04-25T01:53:21.160Z,8.63
2023-04-25T01:55:48.675Z,8.00
2023-04-25T01:58:16.381Z,7.60
2023-04-25T02:00:43.926Z,8.23
2023-04-25T02:03:11.350Z,7.43
2023-04-25T02:05:41.485Z,7.53
2023-04-25T02:08:11.504Z,6.88
2023-04-25T02:10:39.407Z,6.13
2023-04-25T02:13:06.708Z,7.78
2023-04-25T02:15:34.381Z,5.70
2023-04-25T02:18:01.960Z,5.18
2023-04-25T02:20:31.691Z,6.35
2023-04-25T02:22:58.974Z,5.88
2023-04-25T02:25:26.858Z,5.10
2023-04-25T02:27:54.985Z,5.55
2023-04-25T02:30:22.623Z,4.60
2023-04-25T02:32:50.011Z,4.22
2023-04-25T02:35:17.808Z,6.57
2023-04-25T02:37:45.126Z,6.82
2023-04-25T02:40:13.001Z,5.22
2023-04-25T02:42:40.328Z,7.82
2023-04-25T02:45:08.822Z,6.85
2023-04-25T02:47:36.133Z,7.15
2023-04-25T02:50:04.562Z,10.70
2023-04-25T02:52:33.221Z,13.10
2023-04-25T02:55:01.210Z,12.70
2023-04-25T02:57:28.528Z,9.13
2023-04-25T02:59:56.601Z,10.13
2023-04-25T03:02:25.217Z,10.48
2023-04-25T03:04:55.277Z,7.70
2023-04-25T03:07:22.704Z,6.80
2023-04-25T03:09:50.282Z,10.43
2023-04-25T03:12:17.960Z,10.65
2023-04-25T03:14:47.718Z,7.63
2023-04-25T03:17:15.296Z,10.40
2023-04-25T03:19:44.335Z,7.65
2023-04-25T03:22:14.474Z,5.53
2023-04-25T03:24:42.308Z,3.90
2023-04-25T03:27:10.774Z,4.97
2023-04-25T03:29:38.391Z,4.38
2023-04-25T03:32:05.908Z,4.13
2023-04-25T03:34:33.475Z,4.47
2023-04-25T03:37:01.106Z,4.13
2023-04-25T03:39:28.696Z,5.65
2023-04-25T03:41:56.258Z,7.18
2023-04-25T03:44:25.502Z,5.95
2023-04-25T03:46:52.780Z,4.45
2023-04-25T03:49:20.427Z,5.10
2023-04-25T03:51:49.287Z,7.35
2023-04-25T03:54:16.878Z,5.57
2023-04-25T03:56:44.150Z,4.70
2023-04-25T03:59:11.805Z,4.20
2023-04-25T04:01:39.036Z,4.70
2023-04-25T04:04:06.798Z,4.72
2023-04-25T04:06:34.283Z,3.95
2023-04-25T04:09:01.772Z,5.82
2023-04-25T04:11:28.999Z,7.47
2023-04-25T04:13:56.510Z,5.50
2023-04-25T04:16:23.941Z,4.82
2023-04-25T04:18:51.547Z,5.35
2023-04-25T04:21:18.888Z,8.63
2023-04-25T04:23:47.690Z,4.55
2023-04-25T04:26:17.396Z,5.65
2023-04-25T04:28:47.961Z,4.70
2023-04-25T04:31:18.048Z,4.10
2023-04-25T04:33:45.873Z,4.53
2023-04-25T04:36:13.347Z,3.50
2023-04-25T04:38:43.419Z,4.72
2023-04-25T04:41:10.857Z,5.35
2023-04-25T04:43:38.534Z,10.95
2023-04-25T04:46:06.068Z,4.90
2023-04-25T04:48:35.410Z,4.32
2023-04-25T04:51:02.672Z,3.63
2023-04-25T04:53:30.222Z,3.53
2023-04-25T04:55:57.453Z,4.18
2023-04-25T04:58:24.965Z,3.70
2023-04-25T05:00:52.251Z,3.45
2023-04-25T05:03:20.201Z,5.03
2023-04-25T05:05:48.303Z,4.50
2023-04-25T05:08:15.968Z,4.38
2023-04-25T05:10:43.346Z,6.85
2023-04-25T05:13:11.038Z,4.90
2023-04-25T05:15:38.311Z,3.95
2023-04-25T05:18:06.221Z,5.13
2023-04-25T05:20:33.573Z,4.20
2023-04-25T05:23:01.240Z,7.80
2023-04-25T05:25:28.544Z,5.82
2023-04-25T05:27:56.134Z,5.15
2023-04-25T05:30:23.492Z,4.40
2023-04-25T05:32:51.575Z,3.97
2023-04-25T05:35:19.023Z,4.75
2023-04-25T05:37:46.635Z,3.95
2023-04-25T05:40:14.262Z,4.47
2023-04-25T05:42:41.803Z,4.50
2023-04-25T05:45:09.460Z,3.13
2023-04-25T05:47:37.055Z,3.65
2023-04-25T05:50:04.852Z,3.80
2023-04-25T05:52:32.528Z,3.67
2023-04-25T05:54:59.757Z,21.48
2023-04-25T05:57:28.801Z,11.20
2023-04-25T05:59:56.114Z,10.15
2023-04-25T06:02:23.932Z,9.85
2023-04-25T06:04:52.464Z,7.15
2023-04-25T06:07:23.275Z,6.47
2023-04-25T06:09:50.773Z,8.85
2023-04-25T06:12:18.372Z,9.10
2023-04-25T06:14:45.671Z,14.43
2023-04-25T06:17:13.256Z,10.95
2023-04-25T06:19:40.611Z,12.15
2023-04-25T06:22:09.400Z,5.93
2023-04-25T06:24:36.940Z,6.20
2023-04-25T06:27:04.473Z,7.13
2023-04-25T06:29:31.839Z,4.90
2023-04-25T06:31:59.341Z,5.38
2023-04-25T06:34:26.969Z,8.52
2023-04-25T06:36:54.524Z,7.88
2023-04-25T06:39:24.283Z,5.10
2023-04-25T06:41:52.314Z,5.43
2023-04-25T06:44:19.569Z,7.85
2023-04-25T06:46:47.147Z,6.18
2023-04-25T06:49:14.364Z,4.65
2023-04-25T06:51:42.457Z,6.10
2023-04-25T06:54:09.711Z,4.43
2023-04-25T06:56:37.314Z,6.85
2023-04-25T06:59:04.588Z,11.05
2023-04-25T07:01:32.207Z,18.27
2023-04-25T07:03:59.700Z,6.00
2023-04-25T07:06:28.860Z,4.97
2023-04-25T07:08:56.880Z,4.20
2023-04-25T07:11:24.482Z,4.63
2023-04-25T07:13:51.714Z,5.63
2023-04-25T07:16:19.316Z,5.63
2023-04-25T07:18:46.553Z,5.32
2023-04-25T07:21:14.112Z,5.88
2023-04-25T07:23:41.906Z,4.60
2023-04-25T07:26:09.499Z,4.78
2023-04-25T07:28:36.836Z,6.13
2023-04-25T07:31:04.596Z,5.30
2023-04-25T07:33:32.152Z,4.63
2023-04-25T07:35:59.754Z,5.43
2023-04-25T07:38:27.559Z,5.60
2023-04-25T07:40:55.204Z,5.95
2023-04-25T07:43:22.637Z,5.80
2023-04-25T07:45:50.290Z,9.95
2023-04-25T07:48:20.897Z,13.60
2023-04-25T07:50:48.505Z,14.90
2023-04-25T07:53:16.952Z,7.25
2023-04-25T07:55:44.712Z,5.15
2023-04-25T07:58:13.369Z,5.15
2023-04-25T08:00:42.822Z,4.93
2023-04-25T08:03:11.146Z,7.55
2023-04-25T08:05:39.119Z,6.00
2023-04-25T08:08:07.736Z,6.15
2023-04-25T08:10:35.667Z,4.43
2023-04-25T08:13:03.597Z,4.20
2023-04-25T08:15:31.424Z,5.32
2023-04-25T08:17:59.166Z,5.30
2023-04-25T08:20:27.405Z,4.80
2023-04-25T08:22:54.927Z,5.78
2023-04-25T08:25:22.538Z,4.90
2023-04-25T08:27:50.001Z,4.63
2023-04-25T08:30:17.660Z,3.90
2023-04-25T08:32:45.232Z,20.77
2023-04-25T08:35:12.975Z,9.85
2023-04-25T08:37:40.337Z,8.60
2023-04-25T08:40:13.305Z,4.80
2023-04-25T08:42:43.542Z,4.85
2023-04-25T08:45:11.916Z,4.68
2023-04-25T08:47:41.062Z,6.28
2023-04-25T08:50:09.212Z,4.00
2023-04-25T08:52:49.228Z,5.35
2023-04-25T08:55:17.897Z,3.58
2023-04-25T08:57:46.074Z,4.32
2023-04-25T09:00:14.491Z,4.28
2023-04-25T09:02:44.297Z,5.05
2023-04-25T09:05:15.192Z,3.78
2023-04-25T09:07:42.680Z,3.85
2023-04-25T09:10:10.853Z,3.75
2023-04-25T09:12:38.713Z,3.50
2023-04-25T09:15:20.472Z,4.25
2023-04-25T09:17:58.090Z,4.55
2023-04-25T09:20:26.276Z,5.40
2023-04-25T09:23:06.403Z,7.60
2023-04-25T09:25:40.363Z,21.90
2023-04-25T09:28:08.226Z,7.32
2023-04-25T09:30:37.891Z,5.80
2023-04-25T09:33:12.366Z,5.28
2023-04-25T09:35:43.455Z,6.63
2023-04-25T09:38:13.906Z,4.78
2023-04-25T09:40:47.335Z,4.72
2023-04-25T09:43:26.777Z,6.40
2023-04-25T09:45:59.169Z,7.43
2023-04-25T09:48:29.009Z,5.63
2023-04-25T09:51:15.615Z,6.05
2023-04-25T09:53:53.197Z,5.90
2023-04-25T09:56:23.511Z,4.57
2023-04-25T09:58:55.754Z,5.57
2023-04-25T10:01:24.769Z,5.50
2023-04-25T10:03:59.131Z,4.93
2023-04-25T10:06:29.387Z,5.72
2023-04-25T10:08:57.909Z,5.90
2023-04-25T10:11:28.095Z,9.60
2023-04-25T10:13:57.081Z,15.85
2023-04-25T10:16:26.183Z,5.30
2023-04-25T10:18:53.663Z,8.68
2023-04-25T10:21:22.832Z,7.97
2023-04-25T10:23:51.472Z,5.88
2023-04-25T10:26:20.035Z,5.25
2023-04-25T10:29:03.169Z,3.58
2023-04-25T10:31:32.315Z,3.75
2023-04-25T10:34:02.557Z,3.20
2023-04-25T10:36:33.796Z,3.40
2023-04-25T10:39:10.341Z,4.07
2023-04-25T10:41:59.082Z,3.65
2023-04-25T10:44:31.064Z,5.25
2023-04-25T10:47:01.641Z,3.47
2023-04-25T10:49:38.590Z,4.28
2023-04-25T10:52:16.615Z,5.68
2023-04-25T10:54:55.349Z,4.30
2023-04-25T10:57:45.112Z,6.15
2023-04-25T11:00:19.731Z,4.55
2023-04-25T11:02:58.784Z,3.53
2023-04-25T11:05:43.760Z,4.75
2023-04-25T11:08:41.995Z,7.65
2023-04-25T11:11:09.940Z,4.53
2023-04-25T11:13:37.660Z,3.15
2023-04-25T11:16:13.140Z,3.15
2023-04-25T11:18:46.025Z,3.58
2023-04-25T11:21:14.512Z,4.35
2023-04-25T11:23:42.165Z,3.25
2023-04-25T11:26:09.492Z,4.00
2023-04-25T11:28:37.155Z,4.80
2023-04-25T11:31:05.650Z,3.28
2023-04-25T11:33:33.283Z,8.48
2023-04-25T11:36:00.907Z,19.42
2023-04-25T11:38:29.504Z,10.73
2023-04-25T11:40:57.905Z,5.57
2023-04-25T11:43:26.993Z,2.95
2023-04-25T11:45:54.292Z,4.63
2023-04-25T11:48:24.114Z,3.65
2023-04-25T11:50:56.223Z,4.93
2023-04-25T11:53:25.848Z,4.45
2023-04-25T11:55:53.369Z,3.60
2023-04-25T11:58:21.645Z,6.53
2023-04-25T12:00:51.177Z,5.57
2023-04-25T12:03:20.383Z,10.15
2023-04-25T12:05:47.994Z,6.65
2023-04-25T12:08:17.443Z,11.38
2023-04-25T12:10:47.292Z,5.25
2023-04-25T12:13:29.290Z,4.50
2023-04-25T12:15:57.634Z,6.25
2023-04-25T12:18:28.938Z,8.27
2023-04-25T12:20:57.190Z,8.02
2023-04-25T12:23:29.356Z,6.50
2023-04-25T12:25:57.251Z,5.65
2023-04-25T12:28:28.702Z,4.10
2023-04-25T12:31:07.356Z,5.18
2023-04-25T12:33:40.471Z,10.95
2023-04-25T12:36:13.303Z,10.13
2023-04-25T12:38:43.498Z,4.93
2023-04-25T12:41:11.188Z,10.80
2023-04-25T12:43:38.734Z,10.02
2023-04-25T12:46:06.180Z,7.15
2023-04-25T12:48:33.962Z,3.72
2023-04-25T12:51:01.382Z,4.53
2023-04-25T12:53:28.956Z,4.60
2023-04-25T12:55:57.083Z,4.75
2023-04-25T12:58:25.994Z,4.80
2023-04-25T13:00:53.316Z,5.13
2023-04-25T13:03:21.107Z,3.20
2023-04-25T13:05:48.543Z,3.63
2023-04-25T13:08:16.441Z,6.03
2023-04-25T13:10:43.820Z,4.70
2023-04-25T13:13:11.680Z,3.65
2023-04-25T13:15:38.954Z,4.05
2023-04-25T13:18:09.502Z,3.90
2023-04-25T13:20:36.930Z,3.03
2023-04-25T13:23:04.454Z,3.30
2023-04-25T13:25:31.725Z,4.07
2023-04-25T13:27:59.395Z,4.93
2023-04-25T13:30:26.848Z,7.43
2023-04-25T13:32:58.068Z,4.47
2023-04-25T13:35:25.738Z,3.88
2023-04-25T13:37:53.196Z,4.63
2023-04-25T13:40:20.542Z,4.85
2023-04-25T13:42:48.105Z,9.23
2023-04-25T13:45:16.080Z,11.45
2023-04-25T13:47:43.822Z,12.20
2023-04-25T13:50:11.649Z,5.45
2023-04-25T13:52:39.180Z,5.03
2023-04-25T13:55:08.434Z,6.80
2023-04-25T13:57:39.376Z,8.50
2023-04-25T14:00:15.421Z,5.38
2023-04-25T14:02:43.114Z,10.35
2023-04-25T14:05:10.746Z,10.70
2023-04-25T14:07:38.485Z,9.85
2023-04-25T14:10:06.976Z,10.80
2023-04-25T14:12:34.787Z,6.03
2023-04-25T14:15:02.047Z,6.40
2023-04-25T14:17:29.670Z,10.18
2023-04-25T14:19:57.226Z,8.05
2023-04-25T14:22:24.848Z,5.95
2023-04-25T14:24:52.232Z,7.05
2023-04-25T14:27:19.987Z,8.07
2023-04-25T14:29:47.397Z,8.82
2023-04-25T14:32:14.912Z,4.35
2023-04-25T14:34:42.186Z,4.03
2023-04-25T14:37:09.952Z,6.22
2023-04-25T14:39:37.891Z,6.38
2023-04-25T14:42:05.595Z,4.40
2023-04-25T14:44:32.912Z,4.40
2023-04-25T14:47:00.747Z,3.42
2023-04-25T14:49:29.300Z,4.05
2023-04-25T14:51:56.834Z,4.70
2023-04-25T14:54:24.089Z,5.40
2023-04-25T14:56:52.491Z,3.78
2023-04-25T14:59:20.866Z,3.85
2023-04-25T15:01:48.544Z,5.22
2023-04-25T15:04:16.482Z,8.38
2023-04-25T15:06:45.209Z,9.27
2023-04-25T15:09:14.119Z,6.50
2023-04-25T15:11:41.809Z,5.90
2023-04-25T15:14:09.291Z,5.32
2023-04-25T15:16:36.890Z,5.18
2023-04-25T15:19:04.975Z,10.57
2023-04-25T15:21:33.088Z,15.77
2023-04-25T15:24:01.031Z,12.57
2023-04-25T15:26:29.537Z,7.95
2023-04-25T15:28:56.985Z,8.55
2023-04-25T15:31:24.548Z,6.75
2023-04-25T15:33:52.102Z,8.02
2023-04-25T15:36:21.663Z,6.55
2023-04-25T15:38:49.000Z,9.45
2023-04-25T15:41:16.671Z,6.30
2023-04-25T15:43:43.916Z,6.45
2023-04-25T15:46:11.714Z,10.15
2023-04-25T15:48:39.019Z,6.00
2023-04-25T15:51:06.771Z,6.50
2023-04-25T15:53:34.047Z,6.85
2023-04-25T15:56:02.010Z,6.05
2023-04-25T15:58:29.210Z,5.78
2023-04-25T16:00:57.607Z,3.47
2023-04-25T16:03:25.085Z,5.55
2023-04-25T16:05:53.649Z,4.35
2023-04-25T16:08:21.459Z,5.00
2023-04-25T16:10:49.595Z,6.32
2023-04-25T16:13:16.892Z,7.93
2023-04-25T16:15:44.442Z,8.35
2023-04-25T16:18:12.010Z,13.75
2023-04-25T16:20:39.852Z,10.55
2023-04-25T16:23:07.099Z,8.57
2023-04-25T16:25:36.345Z,7.35
2023-04-25T16:28:03.650Z,6.50
2023-04-25T16:30:31.612Z,7.18
2023-04-25T16:32:59.100Z,6.72
2023-04-25T16:35:30.501Z,5.80
2023-04-25T16:37:58.336Z,6.18
2023-04-25T16:40:26.362Z,10.52
2023-04-25T16:42:53.724Z,8.70
2023-04-25T16:45:21.829Z,12.10
2023-04-25T16:47:49.167Z,9.00
2023-04-25T16:50:18.922Z,6.25
2023-04-25T16:52:46.352Z,12.57
2023-04-25T16:55:13.890Z,13.82
2023-04-25T16:57:41.366Z,4.75
2023-04-25T17:00:10.064Z,8.40
2023-04-25T17:02:39.095Z,5.00
2023-04-25T17:05:07.363Z,4.75
2023-04-25T17:07:34.708Z,2.80
2023-04-25T17:10:02.656Z,5.88
2023-04-25T17:12:30.786Z,6.03
2023-04-25T17:15:00.571Z,3.13
2023-04-25T17:17:28.410Z,7.68
2023-04-25T17:19:56.095Z,5.55
2023-04-25T17:22:24.450Z,3.28
2023-04-25T17:24:52.043Z,3.88
2023-04-25T17:27:19.364Z,16.15
2023-04-25T17:29:47.052Z,11.25
2023-04-25T17:32:17.277Z,7.68
2023-04-25T17:34:46.350Z,6.20
2023-04-25T17:37:16.409Z,5.35
2023-04-25T17:39:46.039Z,4.50
2023-04-25T17:42:14.678Z,5.82
2023-04-25T17:44:43.362Z,5.50
2023-04-25T17:47:11.709Z,5.97
2023-04-25T17:49:40.215Z,3.20
2023-04-25T17:52:07.595Z,5.65
2023-04-25T17:54:35.417Z,5.75
2023-04-25T17:57:02.702Z,5.68
2023-04-25T17:59:31.239Z,5.53
2023-04-25T18:02:00.079Z,3.83
2023-04-25T18:04:28.014Z,4.32
2023-04-25T18:06:55.778Z,3.83
2023-04-25T18:09:23.881Z,3.75
2023-04-25T18:11:53.641Z,6.45
2023-04-25T18:14:22.915Z,5.63
2023-04-25T18:16:54.913Z,27.02
2023-04-25T18:19:23.450Z,7.82
2023-04-25T18:21:54.528Z,16.38
2023-04-25T18:24:27.216Z,9.60
2023-04-25T18:26:57.030Z,6.13
2023-04-25T18:29:32.852Z,4.35
2023-04-25T18:32:00.985Z,8.27
2023-04-25T18:34:28.690Z,7.13
2023-04-25T18:36:56.909Z,6.88
2023-04-25T18:39:25.987Z,10.57
2023-04-25T18:42:01.592Z,6.47
2023-04-25T18:44:33.887Z,9.65
2023-04-25T18:47:01.327Z,9.02
2023-04-25T18:49:28.986Z,8.07
2023-04-25T18:51:57.533Z,18.95
2023-04-25T18:54:25.465Z,27.88
2023-04-25T18:56:55.703Z,12.57
2023-04-25T18:59:24.149Z,17.33
2023-04-25T19:01:53.608Z,23.27
2023-04-25T19:04:21.888Z,14.50
2023-04-25T19:06:51.482Z,18.48
2023-04-25T19:09:19.503Z,19.58
2023-04-25T19:11:47.244Z,17.88
2023-04-25T19:14:15.302Z,17.58
2023-04-25T19:16:42.801Z,17.38
2023-04-25T19:19:10.918Z,18.55
2023-04-25T19:21:38.566Z,16.50
2023-04-25T19:24:07.244Z,19.95
2023-04-25T19:26:35.535Z,17.88
2023-04-25T19:29:08.927Z,34.05
2023-04-25T19:31:38.040Z,41.72
2023-04-25T19:34:07.148Z,26.40
2023-04-25T19:36:37.118Z,14.80
2023-04-25T19:39:07.359Z,14.07
2023-04-25T19:41:37.613Z,12.77
2023-04-25T19:44:08.619Z,11.63
2023-04-25T19:46:37.644Z,12.60
2023-04-25T19:49:07.875Z,11.77
2023-04-25T19:51:36.672Z,13.25
2023-04-25T19:54:04.817Z,14.27
2023-04-25T19:56:32.639Z,14.82
2023-04-25T19:59:00.429Z,13.98
2023-04-25T20:01:28.081Z,10.27
2023-04-25T20:03:56.608Z,14.10
2023-04-25T20:06:24.199Z,14.60
2023-04-25T20:08:56.047Z,14.55
2023-04-25T20:11:23.489Z,11.85
2023-04-25T20:13:51.499Z,10.15
2023-04-25T20:16:19.953Z,7.30
2023-04-25T20:18:49.100Z,8.55
2023-04-25T20:21:17.681Z,21.48
2023-04-25T20:23:46.353Z,17.63
2023-04-25T20:26:14.277Z,10.82
2023-04-25T20:28:42.155Z,9.40
2023-04-25T20:31:11.590Z,9.43
2023-04-25T20:33:39.359Z,9.60
2023-04-25T20:36:06.901Z,10.57
2023-04-25T20:38:34.563Z,8.90
2023-04-25T20:41:02.246Z,7.30
2023-04-25T20:43:31.388Z,7.47
2023-04-25T20:46:00.468Z,5.43
2023-04-25T20:48:28.143Z,6.43
2023-04-25T20:50:55.528Z,4.45
2023-04-25T20:53:23.286Z,5.07
2023-04-25T20:55:50.602Z,5.60
2023-04-25T20:58:18.488Z,7.38
2023-04-25T21:00:47.585Z,6.18
2023-04-25T21:03:16.228Z,6.70
2023-04-25T21:05:43.761Z,7.50
2023-04-25T21:08:11.320Z,15.30
2023-04-25T21:10:38.705Z,15.70
2023-04-25T21:13:06.273Z,8.07
2023-04-25T21:15:33.805Z,7.38
2023-04-25T21:18:02.131Z,6.75
2023-04-25T21:20:29.553Z,5.45
2023-04-25T21:22:57.124Z,5.95
2023-04-25T21:25:30.245Z,6.32
2023-04-25T21:27:59.258Z,10.65
2023-04-25T21:30:27.434Z,8.55
2023-04-25T21:32:55.249Z,9.70
2023-04-25T21:35:23.351Z,9.48
2023-04-25T21:37:51.548Z,8.07
2023-04-25T21:40:19.665Z,6.80
2023-04-25T21:42:51.386Z,7.53
2023-04-25T21:45:20.111Z,6.97
2023-04-25T21:47:48.659Z,8.57
2023-04-25T21:50:17.087Z,6.72
2023-04-25T21:52:44.670Z,7.65
2023-04-25T21:55:11.996Z,8.18
2023-04-25T21:57:39.650Z,8.73
2023-04-25T22:00:21.354Z,9.95
2023-04-25T22:02:49.131Z,9.80
2023-04-25T22:05:17.506Z,11.13
2023-04-25T22:07:45.110Z,10.77
2023-04-25T22:10:12.498Z,9.50
2023-04-25T22:12:41.521Z,7.65
2023-04-25T22:15:09.630Z,8.25
2023-04-25T22:17:37.217Z,8.35
2023-04-25T22:20:14.399Z,7.00
2023-04-25T22:22:42.913Z,12.35
2023-04-25T22:25:12.592Z,10.80
2023-04-25T22:27:43.897Z,8.63
2023-04-25T22:30:15.489Z,8.88
2023-04-25T22:32:43.674Z,9.82
2023-04-25T22:35:11.766Z,8.50
2023-04-25T22:37:41.135Z,9.30
2023-04-25T22:40:11.747Z,12.32
2023-04-25T22:42:40.957Z,7.15
2023-04-25T22:45:09.902Z,7.60
2023-04-25T22:47:39.196Z,11.27
2023-04-25T22:50:13.153Z,7.88
2023-04-25T22:52:42.701Z,7.97
2023-04-25T22:55:12.442Z,7.25
2023-04-25T22:57:41.700Z,5.72
2023-04-25T23:00:20.089Z,7.65
2023-04-25T23:02:49.923Z,10.23
2023-04-25T23:05:17.516Z,9.95
2023-04-25T23:07:45.404Z,7.22
2023-04-25T23:10:15.760Z,7.93
2023-04-25T23:12:43.744Z,9.10
2023-04-25T23:15:12.531Z,9.32
2023-04-25T23:17:40.956Z,7.55
2023-04-25T23:20:11.071Z,6.50
2023-04-25T23:22:39.013Z,8.60
2023-04-25T23:25:07.900Z,7.60
2023-04-25T23:27:35.825Z,4.95
2023-04-25T23:30:03.422Z,7.47
2023-04-25T23:32:32.015Z,9.75
2023-04-25T23:34:59.359Z,7.45
2023-04-25T23:37:26.919Z,6.25
2023-04-25T23:39:54.260Z,6.55
2023-04-25T23:42:21.847Z,7.13
2023-04-25T23:44:49.239Z,5.32
2023-04-25T23:47:19.047Z,8.80
2023-04-25T23:49:46.659Z,7.43
2023-04-25T23:52:14.236Z,7.30
2023-04-25T23:54:41.523Z,9.30
2023-04-25T23:57:09.136Z,8.77
2023-04-25T23:59:36.392Z,7.75
